GCTS/TFS METAR and TAF weather

Enter ICAO airport designator
Station Type Date Time Source
GCTS METAR 2021/05/14 22:00 UTC NOAA

GCTS 142200Z 30009KT 9999 FEW035 20/15 Q1017 NOSIG


Station Type Date Time Source
GCTS Decoded METAR 2021/05/14 22:00 UTC NOAA

Tenerife Sur, Spain (GCTS) 28-03N 016-34W 77M
May 14, 2021 - 06:00 PM EDT / 2021.05.14 2200 UTC
Wind: from the WNW (300 degrees) at 10 MPH (9 KT):0
Visibility: greater than 7 mile(s):0
Sky conditions: mostly clear
Temperature: 68 F (20 C)
Dew Point: 59 F (15 C)
Relative Humidity: 72%
Pressure (altimeter): 30.03 in. Hg (1017 hPa)
ob: GCTS 142200Z 30009KT 9999 FEW035 20/15 Q1017 NOSIG
cycle: 22

Station Type Date Time Source
GCTS TAF 2021/05/14 21:27 UTC NOAA

TAF GCTS 142000Z 1421/1521 28006KT 9999 FEW035 TX27/1514Z TN17/1506Z
BECMG 1512/1514 08018KT
BECMG 1516/1518 27006KT

Example: see airport list